sensor_id;sensor_type;location;lat;lon;timestamp;pressure;altitude;pressure_sealevel;temperature;humidity
24160;BME280;62385;41.594;23.808;2023-06-22T00:00:54;95781.28;;;18.30;77.15
24160;BME280;62385;41.594;23.808;2023-06-22T00:03:22;95772.41;;;18.23;77.06
24160;BME280;62385;41.594;23.808;2023-06-22T00:05:48;95783.81;;;18.12;77.27
24160;BME280;62385;41.594;23.808;2023-06-22T00:08:32;95789.41;;;18.04;77.66
24160;BME280;62385;41.594;23.808;2023-06-22T00:10:58;95797.69;;;18.09;77.26
24160;BME280;62385;41.594;23.808;2023-06-22T00:13:23;95793.13;;;18.03;77.83
24160;BME280;62385;41.594;23.808;2023-06-22T00:15:49;95802.19;;;18.15;77.86
24160;BME280;62385;41.594;23.808;2023-06-22T00:18:15;95803.22;;;18.14;77.49
24160;BME280;62385;41.594;23.808;2023-06-22T00:20:41;95809.84;;;18.25;77.11
24160;BME280;62385;41.594;23.808;2023-06-22T00:23:07;95807.53;;;18.35;77.43
24160;BME280;62385;41.594;23.808;2023-06-22T00:25:39;95807.78;;;18.20;77.50
24160;BME280;62385;41.594;23.808;2023-06-22T00:28:08;95805.75;;;18.09;77.59
24160;BME280;62385;41.594;23.808;2023-06-22T00:30:34;95805.31;;;18.06;77.55
24160;BME280;62385;41.594;23.808;2023-06-22T00:33:19;95817.47;;;18.28;77.21
24160;BME280;62385;41.594;23.808;2023-06-22T00:35:45;95807.34;;;18.30;76.57
24160;BME280;62385;41.594;23.808;2023-06-22T00:38:11;95809.03;;;18.11;77.25
24160;BME280;62385;41.594;23.808;2023-06-22T00:40:37;95827.22;;;18.03;77.76
24160;BME280;62385;41.594;23.808;2023-06-22T00:43:03;95824.31;;;17.97;77.76
24160;BME280;62385;41.594;23.808;2023-06-22T00:45:30;95823.09;;;17.87;77.63
24160;BME280;62385;41.594;23.808;2023-06-22T00:47:57;95828.25;;;18.02;77.64
24160;BME280;62385;41.594;23.808;2023-06-22T00:50:25;95830.53;;;17.85;77.91
24160;BME280;62385;41.594;23.808;2023-06-22T00:52:53;95828.47;;;17.74;78.59
24160;BME280;62385;41.594;23.808;2023-06-22T00:55:23;95826.19;;;17.90;77.67
24160;BME280;62385;41.594;23.808;2023-06-22T00:57:49;95822.91;;;17.88;77.95
24160;BME280;62385;41.594;23.808;2023-06-22T01:00:15;95814.84;;;17.75;78.69
24160;BME280;62385;41.594;23.808;2023-06-22T01:02:46;95816.94;;;17.80;78.04
24160;BME280;62385;41.594;23.808;2023-06-22T01:05:16;95819.38;;;17.62;78.54
24160;BME280;62385;41.594;23.808;2023-06-22T01:10:51;95827.66;;;17.67;78.12
24160;BME280;62385;41.594;23.808;2023-06-22T01:13:53;95830.34;;;17.67;77.88
24160;BME280;62385;41.594;23.808;2023-06-22T01:16:23;95832.63;;;17.76;77.95
24160;BME280;62385;41.594;23.808;2023-06-22T01:18:55;95828.91;;;17.71;78.31
24160;BME280;62385;41.594;23.808;2023-06-22T01:21:24;95829.88;;;17.50;78.38
24160;BME280;62385;41.594;23.808;2023-06-22T01:23:56;95826.78;;;17.46;78.35
24160;BME280;62385;41.594;23.808;2023-06-22T01:29:37;95832.09;;;17.20;78.77
24160;BME280;62385;41.594;23.808;2023-06-22T01:32:05;95819.72;;;17.19;78.75
24160;BME280;62385;41.594;23.808;2023-06-22T01:34:34;95810.44;;;17.28;78.76
24160;BME280;62385;41.594;23.808;2023-06-22T01:37:03;95810.66;;;17.33;78.43
24160;BME280;62385;41.594;23.808;2023-06-22T01:39:29;95820.97;;;17.36;78.26
24160;BME280;62385;41.594;23.808;2023-06-22T01:41:55;95820.97;;;17.17;78.65
24160;BME280;62385;41.594;23.808;2023-06-22T01:44:22;95827.13;;;17.04;78.73
24160;BME280;62385;41.594;23.808;2023-06-22T01:46:50;95824.19;;;16.92;79.48
24160;BME280;62385;41.594;23.808;2023-06-22T01:49:16;95837.00;;;17.03;78.99
24160;BME280;62385;41.594;23.808;2023-06-22T01:51:41;95839.09;;;17.08;78.92
24160;BME280;62385;41.594;23.808;2023-06-22T01:54:08;95842.16;;;16.98;78.51
24160;BME280;62385;41.594;23.808;2023-06-22T01:56:34;95834.50;;;16.89;79.30
24160;BME280;62385;41.594;23.808;2023-06-22T01:59:19;95836.97;;;16.84;79.78
24160;BME280;62385;41.594;23.808;2023-06-22T02:01:55;95835.69;;;16.80;79.55
24160;BME280;62385;41.594;23.808;2023-06-22T02:04:28;95835.75;;;16.93;78.52
24160;BME280;62385;41.594;23.808;2023-06-22T02:06:59;95831.00;;;16.95;78.04
24160;BME280;62385;41.594;23.808;2023-06-22T02:09:29;95835.75;;;16.93;78.42
24160;BME280;62385;41.594;23.808;2023-06-22T02:11:56;95849.38;;;16.98;78.52
24160;BME280;62385;41.594;23.808;2023-06-22T02:14:24;95851.03;;;16.99;78.29
24160;BME280;62385;41.594;23.808;2023-06-22T02:16:51;95843.97;;;16.85;79.14
24160;BME280;62385;41.594;23.808;2023-06-22T02:19:22;95853.28;;;16.89;78.83
24160;BME280;62385;41.594;23.808;2023-06-22T02:21:49;95863.44;;;17.06;78.72
24160;BME280;62385;41.594;23.808;2023-06-22T02:24:15;95852.44;;;16.88;78.63
24160;BME280;62385;41.594;23.808;2023-06-22T02:26:42;95860.84;;;16.79;79.16
24160;BME280;62385;41.594;23.808;2023-06-22T02:29:09;95854.66;;;16.78;79.10
24160;BME280;62385;41.594;23.808;2023-06-22T02:31:35;95854.72;;;16.85;78.67
24160;BME280;62385;41.594;23.808;2023-06-22T02:34:00;95853.41;;;16.74;78.68
24160;BME280;62385;41.594;23.808;2023-06-22T02:36:27;95848.22;;;16.66;79.23
24160;BME280;62385;41.594;23.808;2023-06-22T02:38:56;95855.97;;;16.54;79.51
24160;BME280;62385;41.594;23.808;2023-06-22T02:41:27;95856.66;;;16.63;79.46
24160;BME280;62385;41.594;23.808;2023-06-22T02:43:55;95857.94;;;16.74;79.05
24160;BME280;62385;41.594;23.808;2023-06-22T02:46:21;95844.19;;;16.49;79.70
24160;BME280;62385;41.594;23.808;2023-06-22T02:48:47;95846.66;;;16.44;79.85
24160;BME280;62385;41.594;23.808;2023-06-22T02:51:13;95866.97;;;16.66;79.44
24160;BME280;62385;41.594;23.808;2023-06-22T02:53:40;95865.78;;;16.69;80.12
24160;BME280;62385;41.594;23.808;2023-06-22T02:56:11;95877.78;;;16.79;79.47
24160;BME280;62385;41.594;23.808;2023-06-22T02:58:38;95896.31;;;16.74;79.52
24160;BME280;62385;41.594;23.808;2023-06-22T03:01:07;95894.19;;;16.63;79.21
24160;BME280;62385;41.594;23.808;2023-06-22T03:03:33;95885.09;;;16.57;79.43
24160;BME280;62385;41.594;23.808;2023-06-22T03:05:59;95879.31;;;16.60;79.68
24160;BME280;62385;41.594;23.808;2023-06-22T03:08:27;95888.84;;;16.70;79.27
24160;BME280;62385;41.594;23.808;2023-06-22T03:10:53;95890.03;;;16.60;79.48
24160;BME280;62385;41.594;23.808;2023-06-22T03:13:19;95886.00;;;16.78;79.41
24160;BME280;62385;41.594;23.808;2023-06-22T03:16:03;95888.44;;;16.66;79.89
24160;BME280;62385;41.594;23.808;2023-06-22T03:18:29;95888.25;;;16.68;79.22
24160;BME280;62385;41.594;23.808;2023-06-22T03:20:54;95884.00;;;16.52;79.85
24160;BME280;62385;41.594;23.808;2023-06-22T03:23:20;95876.41;;;16.55;79.46
24160;BME280;62385;41.594;23.808;2023-06-22T03:25:45;95886.75;;;16.58;79.63
24160;BME280;62385;41.594;23.808;2023-06-22T03:28:13;95879.97;;;16.69;79.37
24160;BME280;62385;41.594;23.808;2023-06-22T03:30:38;95877.28;;;16.63;79.62
24160;BME280;62385;41.594;23.808;2023-06-22T03:33:04;95871.63;;;16.85;79.34
24160;BME280;62385;41.594;23.808;2023-06-22T03:35:29;95867.47;;;16.83;79.41
24160;BME280;62385;41.594;23.808;2023-06-22T03:37:55;95870.69;;;17.19;78.23
24160;BME280;62385;41.594;23.808;2023-06-22T03:40:20;95872.34;;;17.20;78.69
24160;BME280;62385;41.594;23.808;2023-06-22T03:42:47;95878.25;;;16.96;79.29
24160;BME280;62385;41.594;23.808;2023-06-22T03:45:13;95877.78;;;16.79;80.12
24160;BME280;62385;41.594;23.808;2023-06-22T03:47:40;95883.63;;;16.89;79.70
24160;BME280;62385;41.594;23.808;2023-06-22T03:50:06;95880.81;;;17.17;78.94
24160;BME280;62385;41.594;23.808;2023-06-22T03:52:32;95896.59;;;17.46;77.97
24160;BME280;62385;41.594;23.808;2023-06-22T03:54:57;95894.38;;;17.63;77.28
24160;BME280;62385;41.594;23.808;2023-06-22T03:57:24;95889.22;;;17.88;76.16
24160;BME280;62385;41.594;23.808;2023-06-22T03:59:50;95891.91;;;17.88;76.54
24160;BME280;62385;41.594;23.808;2023-06-22T04:02:16;95891.28;;;17.99;75.99
24160;BME280;62385;41.594;23.808;2023-06-22T04:04:41;95890.69;;;17.97;76.62
24160;BME280;62385;41.594;23.808;2023-06-22T04:07:07;95891.69;;;18.03;76.64
24160;BME280;62385;41.594;23.808;2023-06-22T04:09:33;95893.13;;;18.18;75.56
24160;BME280;62385;41.594;23.808;2023-06-22T04:11:58;95896.88;;;18.24;75.54
24160;BME280;62385;41.594;23.808;2023-06-22T04:14:24;95903.28;;;18.23;75.99
24160;BME280;62385;41.594;23.808;2023-06-22T04:16:51;95900.38;;;18.11;76.94
24160;BME280;62385;41.594;23.808;2023-06-22T04:19:16;95897.72;;;18.05;77.44
24160;BME280;62385;41.594;23.808;2023-06-22T04:21:43;95914.03;;;18.29;77.05
24160;BME280;62385;41.594;23.808;2023-06-22T04:24:10;95912.78;;;18.25;78.90
24160;BME280;62385;41.594;23.808;2023-06-22T04:26:36;95907.59;;;18.30;78.13
24160;BME280;62385;41.594;23.808;2023-06-22T04:29:05;95899.78;;;18.09;78.97
24160;BME280;62385;41.594;23.808;2023-06-22T04:31:32;95902.47;;;18.09;78.40
24160;BME280;62385;41.594;23.808;2023-06-22T04:34:06;95906.56;;;18.18;77.82
24160;BME280;62385;41.594;23.808;2023-06-22T04:36:37;95917.72;;;18.48;77.05
24160;BME280;62385;41.594;23.808;2023-06-22T04:39:05;95903.88;;;18.58;76.91
24160;BME280;62385;41.594;23.808;2023-06-22T04:41:31;95911.13;;;18.37;77.58
24160;BME280;62385;41.594;23.808;2023-06-22T04:44:10;95919.38;;;18.56;77.23
24160;BME280;62385;41.594;23.808;2023-06-22T04:46:36;95922.91;;;18.63;76.67
24160;BME280;62385;41.594;23.808;2023-06-22T04:49:08;95915.28;;;18.53;77.36
24160;BME280;62385;41.594;23.808;2023-06-22T04:51:41;95916.06;;;18.80;76.06
24160;BME280;62385;41.594;23.808;2023-06-22T04:54:08;95917.84;;;18.99;75.70
24160;BME280;62385;41.594;23.808;2023-06-22T04:56:34;95924.25;;;18.98;75.45
24160;BME280;62385;41.594;23.808;2023-06-22T04:59:00;95917.97;;;19.17;75.02
24160;BME280;62385;41.594;23.808;2023-06-22T05:01:26;95908.56;;;19.40;74.32
24160;BME280;62385;41.594;23.808;2023-06-22T05:03:52;95914.56;;;19.35;74.93
24160;BME280;62385;41.594;23.808;2023-06-22T05:06:40;95914.13;;;19.51;74.34
24160;BME280;62385;41.594;23.808;2023-06-22T05:09:06;95915.84;;;19.32;74.94
24160;BME280;62385;41.594;23.808;2023-06-22T05:11:32;95918.66;;;19.51;74.18
24160;BME280;62385;41.594;23.808;2023-06-22T05:13:57;95922.03;;;19.40;74.51
24160;BME280;62385;41.594;23.808;2023-06-22T05:16:24;95924.50;;;19.48;75.11
24160;BME280;62385;41.594;23.808;2023-06-22T05:18:54;95913.13;;;19.46;74.31
24160;BME280;62385;41.594;23.808;2023-06-22T05:21:25;95902.75;;;19.80;72.90
24160;BME280;62385;41.594;23.808;2023-06-22T05:23:52;95916.47;;;19.72;73.84
24160;BME280;62385;41.594;23.808;2023-06-22T05:26:18;95915.88;;;20.02;72.44
24160;BME280;62385;41.594;23.808;2023-06-22T05:28:44;95908.94;;;20.12;72.27
24160;BME280;62385;41.594;23.808;2023-06-22T05:31:14;95905.38;;;20.18;71.97
24160;BME280;62385;41.594;23.808;2023-06-22T05:33:42;95901.56;;;20.33;70.91
24160;BME280;62385;41.594;23.808;2023-06-22T05:36:08;95896.06;;;20.14;71.86
24160;BME280;62385;41.594;23.808;2023-06-22T05:38:34;95898.88;;;20.26;71.71
24160;BME280;62385;41.594;23.808;2023-06-22T05:41:00;95898.28;;;20.24;73.55
24160;BME280;62385;41.594;23.808;2023-06-22T05:43:25;95900.09;;;20.30;72.87
24160;BME280;62385;41.594;23.808;2023-06-22T05:45:51;95898.03;;;20.50;72.75
24160;BME280;62385;41.594;23.808;2023-06-22T05:48:35;95898.13;;;20.44;72.51
24160;BME280;62385;41.594;23.808;2023-06-22T05:51:02;95899.91;;;20.32;73.09
24160;BME280;62385;41.594;23.808;2023-06-22T05:53:27;95894.16;;;20.46;72.71
24160;BME280;62385;41.594;23.808;2023-06-22T05:55:56;95895.97;;;20.52;72.59
24160;BME280;62385;41.594;23.808;2023-06-22T05:58:21;95903.03;;;20.53;72.56
24160;BME280;62385;41.594;23.808;2023-06-22T06:00:48;95890.59;;;20.70;71.82
24160;BME280;62385;41.594;23.808;2023-06-22T06:03:13;95890.69;;;20.82;71.46
24160;BME280;62385;41.594;23.808;2023-06-22T06:06:00;95887.44;;;20.73;70.96
24160;BME280;62385;41.594;23.808;2023-06-22T06:08:28;95886.25;;;21.06;70.56
24160;BME280;62385;41.594;23.808;2023-06-22T06:10:54;95884.94;;;21.15;69.49
24160;BME280;62385;41.594;23.808;2023-06-22T06:13:20;95893.28;;;21.25;68.21
24160;BME280;62385;41.594;23.808;2023-06-22T06:15:45;95891.06;;;21.22;67.95
24160;BME280;62385;41.594;23.808;2023-06-22T06:18:11;95879.44;;;21.03;68.18
24160;BME280;62385;41.594;23.808;2023-06-22T06:20:37;95876.34;;;21.36;66.66
24160;BME280;62385;41.594;23.808;2023-06-22T06:23:02;95882.19;;;21.33;66.02
24160;BME280;62385;41.594;23.808;2023-06-22T06:25:28;95880.63;;;21.55;66.29
24160;BME280;62385;41.594;23.808;2023-06-22T06:27:54;95880.34;;;21.75;65.25
24160;BME280;62385;41.594;23.808;2023-06-22T06:33:59;95869.97;;;21.31;64.35
24160;BME280;62385;41.594;23.808;2023-06-22T06:36:26;95877.97;;;21.67;61.97
24160;BME280;62385;41.594;23.808;2023-06-22T06:38:51;95883.75;;;21.71;63.60
24160;BME280;62385;41.594;23.808;2023-06-22T06:41:16;95883.56;;;21.54;64.51
24160;BME280;62385;41.594;23.808;2023-06-22T06:43:42;95877.78;;;21.80;64.71
24160;BME280;62385;41.594;23.808;2023-06-22T06:46:09;95880.34;;;21.75;65.42
24160;BME280;62385;41.594;23.808;2023-06-22T06:48:35;95886.50;;;21.52;65.40
24160;BME280;62385;41.594;23.808;2023-06-22T06:51:01;95877.25;;;21.12;66.35
24160;BME280;62385;41.594;23.808;2023-06-22T06:53:27;95884.66;;;21.35;65.67
24160;BME280;62385;41.594;23.808;2023-06-22T06:55:54;95874.47;;;21.78;63.90
24160;BME280;62385;41.594;23.808;2023-06-22T06:58:19;95867.72;;;21.99;64.04
24160;BME280;62385;41.594;23.808;2023-06-22T07:00:45;95874.22;;;21.98;65.55
24160;BME280;62385;41.594;23.808;2023-06-22T07:03:11;95877.66;;;22.17;63.89
24160;BME280;62385;41.594;23.808;2023-06-22T07:05:37;95872.69;;;22.02;62.38
24160;BME280;62385;41.594;23.808;2023-06-22T07:08:03;95872.91;;;22.00;62.24
24160;BME280;62385;41.594;23.808;2023-06-22T07:10:29;95883.25;;;22.03;63.54
24160;BME280;62385;41.594;23.808;2023-06-22T07:12:55;95864.84;;;22.35;62.82
24160;BME280;62385;41.594;23.808;2023-06-22T07:15:21;95867.31;;;22.37;62.59
24160;BME280;62385;41.594;23.808;2023-06-22T07:17:46;95873.41;;;22.32;63.35
24160;BME280;62385;41.594;23.808;2023-06-22T07:20:12;95862.50;;;22.50;61.80
24160;BME280;62385;41.594;23.808;2023-06-22T07:22:39;95866.75;;;22.70;61.58
24160;BME280;62385;41.594;23.808;2023-06-22T07:25:05;95863.66;;;22.66;61.47
24160;BME280;62385;41.594;23.808;2023-06-22T07:27:38;95871.69;;;22.84;59.75
24160;BME280;62385;41.594;23.808;2023-06-22T07:30:05;95861.44;;;22.63;60.83
24160;BME280;62385;41.594;23.808;2023-06-22T07:32:31;95858.22;;;23.01;60.27
24160;BME280;62385;41.594;23.808;2023-06-22T07:34:58;95864.47;;;23.02;60.64
24160;BME280;62385;41.594;23.808;2023-06-22T07:37:24;95865.22;;;23.25;60.66
24160;BME280;62385;41.594;23.808;2023-06-22T07:39:50;95853.13;;;23.16;60.29
24160;BME280;62385;41.594;23.808;2023-06-22T07:42:19;95858.66;;;23.21;59.60
24160;BME280;62385;41.594;23.808;2023-06-22T07:44:45;95859.84;;;23.14;59.41
24160;BME280;62385;41.594;23.808;2023-06-22T07:47:10;95852.75;;;23.24;58.23
24160;BME280;62385;41.594;23.808;2023-06-22T07:49:36;95853.75;;;23.47;57.93
24160;BME280;62385;41.594;23.808;2023-06-22T07:52:01;95855.75;;;23.51;57.90
24160;BME280;62385;41.594;23.808;2023-06-22T07:54:28;95846.38;;;23.30;57.61
24160;BME280;62385;41.594;23.808;2023-06-22T07:56:54;95849.66;;;23.32;57.31
24160;BME280;62385;41.594;23.808;2023-06-22T07:59:19;95846.94;;;23.72;52.87
24160;BME280;62385;41.594;23.808;2023-06-22T08:01:45;95840.81;;;23.65;56.07
24160;BME280;62385;41.594;23.808;2023-06-22T08:04:11;95836.53;;;23.69;56.47
24160;BME280;62385;41.594;23.808;2023-06-22T08:06:37;95832.25;;;24.02;53.49
24160;BME280;62385;41.594;23.808;2023-06-22T08:09:02;95830.41;;;24.07;52.67
24160;BME280;62385;41.594;23.808;2023-06-22T08:11:28;95826.81;;;24.02;53.75
24160;BME280;62385;41.594;23.808;2023-06-22T08:13:54;95824.25;;;24.45;54.36
24160;BME280;62385;41.594;23.808;2023-06-22T08:16:21;95821.06;;;24.31;54.95
24160;BME280;62385;41.594;23.808;2023-06-22T08:18:46;95818.84;;;24.45;54.60
24160;BME280;62385;41.594;23.808;2023-06-22T08:21:12;95814.13;;;24.57;54.09
24160;BME280;62385;41.594;23.808;2023-06-22T08:23:37;95810.94;;;24.44;52.85
24160;BME280;62385;41.594;23.808;2023-06-22T08:26:03;95806.56;;;24.59;50.40
24160;BME280;62385;41.594;23.808;2023-06-22T08:28:29;95804.34;;;24.78;52.31
24160;BME280;62385;41.594;23.808;2023-06-22T08:30:54;95809.13;;;24.49;51.70
24160;BME280;62385;41.594;23.808;2023-06-22T08:33:20;95805.63;;;24.70;51.93
24160;BME280;62385;41.594;23.808;2023-06-22T08:35:49;95808.22;;;24.82;52.05
24160;BME280;62385;41.594;23.808;2023-06-22T08:38:16;95794.91;;;25.02;49.07
24160;BME280;62385;41.594;23.808;2023-06-22T08:40:44;95800.31;;;25.46;50.87
24160;BME280;62385;41.594;23.808;2023-06-22T08:43:09;95793.63;;;25.32;50.92
24160;BME280;62385;41.594;23.808;2023-06-22T08:45:35;95798.16;;;25.21;50.39
24160;BME280;62385;41.594;23.808;2023-06-22T08:48:01;95797.31;;;25.20;50.50
24160;BME280;62385;41.594;23.808;2023-06-22T08:50:27;95795.09;;;25.66;50.48
24160;BME280;62385;41.594;23.808;2023-06-22T08:52:52;95798.06;;;25.38;50.03
24160;BME280;62385;41.594;23.808;2023-06-22T08:55:18;95795.50;;;25.26;51.87
24160;BME280;62385;41.594;23.808;2023-06-22T08:57:44;95788.06;;;25.70;50.08
24160;BME280;62385;41.594;23.808;2023-06-22T09:00:10;95796.00;;;25.77;48.11
24160;BME280;62385;41.594;23.808;2023-06-22T09:02:44;95795.16;;;26.03;49.82
24160;BME280;62385;41.594;23.808;2023-06-22T09:05:10;95790.97;;;26.22;48.47
24160;BME280;62385;41.594;23.808;2023-06-22T09:07:37;95795.41;;;26.01;46.13
24160;BME280;62385;41.594;23.808;2023-06-22T09:10:03;95778.56;;;26.36;46.57
24160;BME280;62385;41.594;23.808;2023-06-22T09:12:32;95779.97;;;26.44;46.86
24160;BME280;62385;41.594;23.808;2023-06-22T09:14:59;95779.22;;;26.53;47.39
24160;BME280;62385;41.594;23.808;2023-06-22T09:17:26;95777.53;;;26.47;50.23
24160;BME280;62385;41.594;23.808;2023-06-22T09:19:51;95780.09;;;26.64;46.79
24160;BME280;62385;41.594;23.808;2023-06-22T09:22:17;95782.09;;;26.79;49.16
24160;BME280;62385;41.594;23.808;2023-06-22T09:24:43;95775.47;;;26.64;49.99
24160;BME280;62385;41.594;23.808;2023-06-22T09:27:08;95769.94;;;26.49;48.87
24160;BME280;62385;41.594;23.808;2023-06-22T09:29:34;95767.84;;;26.72;48.79
24160;BME280;62385;41.594;23.808;2023-06-22T09:32:00;95758.72;;;26.93;47.19
24160;BME280;62385;41.594;23.808;2023-06-22T09:34:26;95748.97;;;27.02;46.67
24160;BME280;62385;41.594;23.808;2023-06-22T09:36:51;95759.19;;;26.75;45.74
24160;BME280;62385;41.594;23.808;2023-06-22T09:39:18;95754.50;;;26.65;45.72
24160;BME280;62385;41.594;23.808;2023-06-22T09:42:03;95758.81;;;27.18;46.16
24160;BME280;62385;41.594;23.808;2023-06-22T09:44:28;95763.16;;;27.14;46.07
24160;BME280;62385;41.594;23.808;2023-06-22T09:46:54;95758.47;;;26.94;43.02
24160;BME280;62385;41.594;23.808;2023-06-22T09:49:19;95759.06;;;27.06;41.24
24160;BME280;62385;41.594;23.808;2023-06-22T09:51:45;95751.59;;;27.74;40.13
24160;BME280;62385;41.594;23.808;2023-06-22T09:54:11;95746.38;;;27.47;43.07
24160;BME280;62385;41.594;23.808;2023-06-22T09:56:36;95743.94;;;27.96;41.31
24160;BME280;62385;41.594;23.808;2023-06-22T09:59:03;95734.97;;;28.11;41.91
24160;BME280;62385;41.594;23.808;2023-06-22T10:01:28;95744.53;;;28.24;40.86
24160;BME280;62385;41.594;23.808;2023-06-22T10:03:55;95745.06;;;28.31;38.34
24160;BME280;62385;41.594;23.808;2023-06-22T10:06:21;95735.97;;;28.61;41.62
24160;BME280;62385;41.594;23.808;2023-06-22T10:08:47;95731.03;;;28.58;38.92
24160;BME280;62385;41.594;23.808;2023-06-22T10:11:13;95728.31;;;28.73;37.50
24160;BME280;62385;41.594;23.808;2023-06-22T10:13:40;95727.19;;;28.69;38.68
24160;BME280;62385;41.594;23.808;2023-06-22T10:16:06;95718.47;;;28.72;39.68
24160;BME280;62385;41.594;23.808;2023-06-22T10:18:32;95725.81;;;28.81;39.48
24160;BME280;62385;41.594;23.808;2023-06-22T10:20:58;95721.47;;;28.70;41.12
24160;BME280;62385;41.594;23.808;2023-06-22T10:23:24;95704.00;;;28.61;39.88
24160;BME280;62385;41.594;23.808;2023-06-22T10:25:50;95711.97;;;28.48;40.65
24160;BME280;62385;41.594;23.808;2023-06-22T10:28:16;95715.22;;;28.50;39.90
24160;BME280;62385;41.594;23.808;2023-06-22T10:30:42;95701.97;;;28.92;39.89
24160;BME280;62385;41.594;23.808;2023-06-22T10:33:12;95701.38;;;29.00;37.53
24160;BME280;62385;41.594;23.808;2023-06-22T10:35:38;95704.63;;;29.07;37.77
24160;BME280;62385;41.594;23.808;2023-06-22T10:38:04;95689.38;;;28.96;40.26
24160;BME280;62385;41.594;23.808;2023-06-22T10:40:30;95698.25;;;29.66;38.66
24160;BME280;62385;41.594;23.808;2023-06-22T10:42:56;95688.59;;;29.78;37.95
24160;BME280;62385;41.594;23.808;2023-06-22T10:45:21;95685.88;;;29.40;39.18
24160;BME280;62385;41.594;23.808;2023-06-22T10:47:47;95681.28;;;30.03;38.62
24160;BME280;62385;41.594;23.808;2023-06-22T10:50:13;95677.88;;;30.16;39.42
24160;BME280;62385;41.594;23.808;2023-06-22T10:52:38;95675.13;;;29.87;38.67
24160;BME280;62385;41.594;23.808;2023-06-22T10:55:05;95679.84;;;30.10;38.08
24160;BME280;62385;41.594;23.808;2023-06-22T10:57:30;95675.25;;;30.30;37.01
24160;BME280;62385;41.594;23.808;2023-06-22T10:59:57;95670.69;;;30.20;38.35
24160;BME280;62385;41.594;23.808;2023-06-22T11:02:23;95675.94;;;29.49;39.36
24160;BME280;62385;41.594;23.808;2023-06-22T11:04:49;95671.91;;;29.41;40.95
24160;BME280;62385;41.594;23.808;2023-06-22T11:07:15;95671.69;;;29.32;39.79
24160;BME280;62385;41.594;23.808;2023-06-22T11:09:43;95665.81;;;29.88;38.58
24160;BME280;62385;41.594;23.808;2023-06-22T11:12:08;95665.47;;;29.95;38.01
24160;BME280;62385;41.594;23.808;2023-06-22T11:14:35;95658.97;;;29.86;36.14
24160;BME280;62385;41.594;23.808;2023-06-22T11:17:01;95660.34;;;29.83;37.60
24160;BME280;62385;41.594;23.808;2023-06-22T11:19:26;95664.44;;;29.86;37.16
24160;BME280;62385;41.594;23.808;2023-06-22T11:21:52;95660.72;;;30.05;34.94
24160;BME280;62385;41.594;23.808;2023-06-22T11:24:17;95662.38;;;30.30;34.59
24160;BME280;62385;41.594;23.808;2023-06-22T11:26:43;95657.97;;;30.34;34.24
24160;BME280;62385;41.594;23.808;2023-06-22T11:29:09;95659.97;;;30.76;34.14
24160;BME280;62385;41.594;23.808;2023-06-22T11:31:35;95661.13;;;30.46;36.85
24160;BME280;62385;41.594;23.808;2023-06-22T11:34:01;95654.91;;;30.36;38.41
24160;BME280;62385;41.594;23.808;2023-06-22T11:36:27;95659.63;;;30.06;37.89
24160;BME280;62385;41.594;23.808;2023-06-22T11:38:54;95659.47;;;30.21;38.38
24160;BME280;62385;41.594;23.808;2023-06-22T11:41:19;95656.38;;;30.28;37.84
24160;BME280;62385;41.594;23.808;2023-06-22T11:43:45;95656.16;;;29.96;36.39
24160;BME280;62385;41.594;23.808;2023-06-22T11:46:10;95656.59;;;29.74;36.98
24160;BME280;62385;41.594;23.808;2023-06-22T11:48:36;95652.09;;;29.93;38.12
24160;BME280;62385;41.594;23.808;2023-06-22T11:51:02;95653.63;;;30.04;38.22
24160;BME280;62385;41.594;23.808;2023-06-22T11:53:29;95654.44;;;30.29;37.43
24160;BME280;62385;41.594;23.808;2023-06-22T11:55:55;95652.56;;;30.77;36.64
24160;BME280;62385;41.594;23.808;2023-06-22T11:58:22;95655.31;;;30.95;33.28
24160;BME280;62385;41.594;23.808;2023-06-22T12:00:48;95649.63;;;31.48;31.79
24160;BME280;62385;41.594;23.808;2023-06-22T12:03:35;95642.53;;;31.47;32.53
24160;BME280;62385;41.594;23.808;2023-06-22T12:06:01;95643.09;;;31.44;33.98
24160;BME280;62385;41.594;23.808;2023-06-22T12:08:27;95637.06;;;30.86;34.08
24160;BME280;62385;41.594;23.808;2023-06-22T12:10:54;95649.06;;;30.47;33.74
24160;BME280;62385;41.594;23.808;2023-06-22T12:13:19;95647.03;;;30.05;35.76
24160;BME280;62385;41.594;23.808;2023-06-22T12:15:45;95631.41;;;30.58;35.58
24160;BME280;62385;41.594;23.808;2023-06-22T12:18:11;95641.63;;;31.33;34.50
24160;BME280;62385;41.594;23.808;2023-06-22T12:20:36;95635.34;;;31.83;34.14
24160;BME280;62385;41.594;23.808;2023-06-22T12:23:02;95632.88;;;31.49;33.54
24160;BME280;62385;41.594;23.808;2023-06-22T12:25:28;95628.03;;;31.60;35.42
24160;BME280;62385;41.594;23.808;2023-06-22T12:27:53;95631.94;;;31.73;34.19
24160;BME280;62385;41.594;23.808;2023-06-22T12:30:20;95617.06;;;32.06;33.90
24160;BME280;62385;41.594;23.808;2023-06-22T12:32:46;95617.31;;;31.77;34.78
24160;BME280;62385;41.594;23.808;2023-06-22T12:35:12;95620.59;;;32.25;33.27
24160;BME280;62385;41.594;23.808;2023-06-22T12:37:42;95627.13;;;31.13;35.46
24160;BME280;62385;41.594;23.808;2023-06-22T12:40:08;95628.78;;;30.91;36.42
24160;BME280;62385;41.594;23.808;2023-06-22T12:42:34;95614.44;;;31.18;34.87
24160;BME280;62385;41.594;23.808;2023-06-22T12:45:00;95615.59;;;32.27;32.79
24160;BME280;62385;41.594;23.808;2023-06-22T12:47:25;95617.25;;;31.82;34.08
24160;BME280;62385;41.594;23.808;2023-06-22T12:49:51;95610.09;;;31.68;34.00
24160;BME280;62385;41.594;23.808;2023-06-22T12:52:16;95597.50;;;32.54;34.23
24160;BME280;62385;41.594;23.808;2023-06-22T12:54:42;95600.34;;;32.35;32.03
24160;BME280;62385;41.594;23.808;2023-06-22T12:57:07;95598.19;;;32.32;32.09
24160;BME280;62385;41.594;23.808;2023-06-22T12:59:34;95595.75;;;32.44;33.41